sensor_id;sensor_type;location;lat;lon;timestamp;P1;durP1;ratioP1;P2;durP2;ratioP2
75516;SDS011;64097;52.548;13.406;2024-02-26T06:02:12;8.57;;;7.75;;
75516;SDS011;64097;52.548;13.406;2024-02-26T06:04:38;8.40;;;7.50;;
75516;SDS011;64097;52.548;13.406;2024-02-26T06:07:04;8.48;;;7.40;;
75516;SDS011;64097;52.548;13.406;2024-02-26T06:09:30;8.40;;;7.38;;
75516;SDS011;64097;52.548;13.406;2024-02-26T06:11:55;10.32;;;8.00;;
75516;SDS011;64097;52.548;13.406;2024-02-26T06:14:21;9.68;;;8.52;;
75516;SDS011;64097;52.548;13.406;2024-02-26T06:16:48;11.35;;;8.55;;
75516;SDS011;64097;52.548;13.406;2024-02-26T06:19:14;10.13;;;8.70;;
75516;SDS011;64097;52.548;13.406;2024-02-26T06:21:40;9.95;;;8.80;;
75516;SDS011;64097;52.548;13.406;2024-02-26T06:24:05;10.55;;;8.88;;
75516;SDS011;64097;52.548;13.406;2024-02-26T06:26:31;12.82;;;9.60;;
75516;SDS011;64097;52.548;13.406;2024-02-26T06:28:58;9.75;;;8.60;;
75516;SDS011;64097;52.548;13.406;2024-02-26T06:31:24;10.30;;;8.68;;
75516;SDS011;64097;52.548;13.406;2024-02-26T06:33:52;12.32;;;9.63;;
75516;SDS011;64097;52.548;13.406;2024-02-26T06:36:18;12.55;;;10.30;;
75516;SDS011;64097;52.548;13.406;2024-02-26T06:38:44;13.18;;;10.20;;
75516;SDS011;64097;52.548;13.406;2024-02-26T06:41:10;12.60;;;10.30;;
75516;SDS011;64097;52.548;13.406;2024-02-26T06:43:36;10.48;;;9.38;;
75516;SDS011;64097;52.548;13.406;2024-02-26T06:46:02;12.52;;;10.25;;
75516;SDS011;64097;52.548;13.406;2024-02-26T06:48:28;12.57;;;9.77;;
75516;SDS011;64097;52.548;13.406;2024-02-26T06:50:53;11.25;;;9.77;;
75516;SDS011;64097;52.548;13.406;2024-02-26T06:53:19;11.02;;;9.73;;
75516;SDS011;64097;52.548;13.406;2024-02-26T06:55:45;10.27;;;8.88;;
75516;SDS011;64097;52.548;13.406;2024-02-26T06:58:10;9.88;;;8.60;;
75516;SDS011;64097;52.548;13.406;2024-02-26T07:00:37;11.38;;;9.38;;
75516;SDS011;64097;52.548;13.406;2024-02-26T07:03:03;13.82;;;10.63;;
75516;SDS011;64097;52.548;13.406;2024-02-26T07:05:28;14.60;;;11.48;;
75516;SDS011;64097;52.548;13.406;2024-02-26T07:07:54;13.20;;;11.02;;
75516;SDS011;64097;52.548;13.406;2024-02-26T07:10:20;13.40;;;10.75;;
75516;SDS011;64097;52.548;13.406;2024-02-26T07:12:46;13.05;;;11.07;;
75516;SDS011;64097;52.548;13.406;2024-02-26T07:15:12;13.48;;;10.85;;
75516;SDS011;64097;52.548;13.406;2024-02-26T07:17:37;13.00;;;11.02;;
75516;SDS011;64097;52.548;13.406;2024-02-26T07:20:07;13.77;;;11.32;;
75516;SDS011;64097;52.548;13.406;2024-02-26T07:22:33;12.35;;;10.65;;
75516;SDS011;64097;52.548;13.406;2024-02-26T07:24:59;12.88;;;10.38;;
75516;SDS011;64097;52.548;13.406;2024-02-26T07:27:25;13.05;;;11.30;;
75516;SDS011;64097;52.548;13.406;2024-02-26T07:29:50;12.25;;;10.80;;
75516;SDS011;64097;52.548;13.406;2024-02-26T07:32:16;15.82;;;11.20;;
75516;SDS011;64097;52.548;13.406;2024-02-26T07:34:42;12.60;;;10.63;;
75516;SDS011;64097;52.548;13.406;2024-02-26T07:37:09;10.63;;;9.52;;
75516;SDS011;64097;52.548;13.406;2024-02-26T07:39:36;11.35;;;10.15;;
75516;SDS011;64097;52.548;13.406;2024-02-26T07:42:02;11.88;;;10.60;;
75516;SDS011;64097;52.548;13.406;2024-02-26T07:44:28;12.65;;;10.25;;
75516;SDS011;64097;52.548;13.406;2024-02-26T07:46:53;14.15;;;11.80;;
75516;SDS011;64097;52.548;13.406;2024-02-26T07:49:19;12.07;;;10.75;;
75516;SDS011;64097;52.548;13.406;2024-02-26T07:51:45;13.73;;;12.15;;
75516;SDS011;64097;52.548;13.406;2024-02-26T07:54:11;12.90;;;11.13;;
75516;SDS011;64097;52.548;13.406;2024-02-26T07:56:37;12.15;;;10.13;;
75516;SDS011;64097;52.548;13.406;2024-02-26T07:59:02;11.40;;;9.75;;
75516;SDS011;64097;52.548;13.406;2024-02-26T08:01:28;13.02;;;11.45;;
75516;SDS011;64097;52.548;13.406;2024-02-26T08:03:54;12.60;;;10.90;;
75516;SDS011;64097;52.548;13.406;2024-02-26T08:06:20;12.70;;;11.07;;
75516;SDS011;64097;52.548;13.406;2024-02-26T08:08:46;14.65;;;12.07;;
75516;SDS011;64097;52.548;13.406;2024-02-26T08:11:14;12.65;;;11.07;;
75516;SDS011;64097;52.548;13.406;2024-02-26T08:13:40;12.75;;;11.27;;
75516;SDS011;64097;52.548;13.406;2024-02-26T08:16:06;11.70;;;10.27;;
75516;SDS011;64097;52.548;13.406;2024-02-26T08:18:32;12.10;;;10.60;;
75516;SDS011;64097;52.548;13.406;2024-02-26T08:20:58;13.80;;;12.32;;
75516;SDS011;64097;52.548;13.406;2024-02-26T08:23:24;12.98;;;10.75;;
75516;SDS011;64097;52.548;13.406;2024-02-26T08:25:50;13.48;;;12.07;;
75516;SDS011;64097;52.548;13.406;2024-02-26T08:28:16;12.73;;;11.43;;
75516;SDS011;64097;52.548;13.406;2024-02-26T08:30:43;14.05;;;12.55;;
75516;SDS011;64097;52.548;13.406;2024-02-26T08:33:09;13.68;;;11.68;;
75516;SDS011;64097;52.548;13.406;2024-02-26T08:35:35;13.38;;;11.98;;
75516;SDS011;64097;52.548;13.406;2024-02-26T08:38:01;13.80;;;12.40;;
75516;SDS011;64097;52.548;13.406;2024-02-26T08:40:28;14.82;;;13.23;;
75516;SDS011;64097;52.548;13.406;2024-02-26T08:42:54;15.43;;;12.50;;
75516;SDS011;64097;52.548;13.406;2024-02-26T08:45:20;13.02;;;11.73;;
75516;SDS011;64097;52.548;13.406;2024-02-26T08:47:46;13.07;;;11.70;;
75516;SDS011;64097;52.548;13.406;2024-02-26T08:50:13;15.45;;;13.20;;
75516;SDS011;64097;52.548;13.406;2024-02-26T08:52:39;13.43;;;12.05;;
75516;SDS011;64097;52.548;13.406;2024-02-26T08:55:07;15.60;;;13.98;;
75516;SDS011;64097;52.548;13.406;2024-02-26T08:57:34;15.35;;;13.15;;
75516;SDS011;64097;52.548;13.406;2024-02-26T09:00:00;15.70;;;13.68;;
75516;SDS011;64097;52.548;13.406;2024-02-26T09:02:29;14.93;;;12.98;;
75516;SDS011;64097;52.548;13.406;2024-02-26T09:04:55;14.85;;;13.02;;
75516;SDS011;64097;52.548;13.406;2024-02-26T09:07:22;14.05;;;12.48;;
75516;SDS011;64097;52.548;13.406;2024-02-26T09:09:47;16.75;;;14.05;;
75516;SDS011;64097;52.548;13.406;2024-02-26T09:12:13;15.07;;;13.20;;
75516;SDS011;64097;52.548;13.406;2024-02-26T09:14:39;15.05;;;12.93;;
75516;SDS011;64097;52.548;13.406;2024-02-26T09:17:04;16.27;;;14.05;;
75516;SDS011;64097;52.548;13.406;2024-02-26T09:19:32;14.57;;;13.07;;
75516;SDS011;64097;52.548;13.406;2024-02-26T09:21:58;14.60;;;13.10;;
75516;SDS011;64097;52.548;13.406;2024-02-26T09:24:24;13.88;;;12.38;;
75516;SDS011;64097;52.548;13.406;2024-02-26T09:26:50;12.90;;;11.55;;
75516;SDS011;64097;52.548;13.406;2024-02-26T09:29:15;11.93;;;10.68;;
75516;SDS011;64097;52.548;13.406;2024-02-26T09:31:42;12.07;;;10.88;;
75516;SDS011;64097;52.548;13.406;2024-02-26T09:34:08;12.63;;;11.32;;
75516;SDS011;64097;52.548;13.406;2024-02-26T09:36:34;14.98;;;13.07;;
75516;SDS011;64097;52.548;13.406;2024-02-26T09:39:00;14.07;;;11.82;;
75516;SDS011;64097;52.548;13.406;2024-02-26T09:41:27;13.88;;;12.20;;
75516;SDS011;64097;52.548;13.406;2024-02-26T09:43:55;12.75;;;11.45;;
75516;SDS011;64097;52.548;13.406;2024-02-26T09:46:22;12.38;;;11.07;;
75516;SDS011;64097;52.548;13.406;2024-02-26T09:48:50;13.73;;;12.00;;
75516;SDS011;64097;52.548;13.406;2024-02-26T09:51:15;12.60;;;11.30;;
75516;SDS011;64097;52.548;13.406;2024-02-26T09:53:43;13.75;;;12.05;;
75516;SDS011;64097;52.548;13.406;2024-02-26T09:56:11;12.60;;;11.30;;
75516;SDS011;64097;52.548;13.406;2024-02-26T09:58:40;12.30;;;10.90;;
75516;SDS011;64097;52.548;13.406;2024-02-26T10:01:13;12.77;;;11.40;;
75516;SDS011;64097;52.548;13.406;2024-02-26T10:03:43;13.82;;;12.10;;
75516;SDS011;64097;52.548;13.406;2024-02-26T10:06:10;15.20;;;12.52;;
75516;SDS011;64097;52.548;13.406;2024-02-26T10:08:36;13.70;;;11.93;;
75516;SDS011;64097;52.548;13.406;2024-02-26T10:11:02;12.20;;;10.90;;
75516;SDS011;64097;52.548;13.406;2024-02-26T10:13:32;12.93;;;10.88;;
75516;SDS011;64097;52.548;13.406;2024-02-26T10:15:57;12.88;;;10.90;;
75516;SDS011;64097;52.548;13.406;2024-02-26T10:18:23;12.45;;;10.75;;
75516;SDS011;64097;52.548;13.406;2024-02-26T10:20:59;10.65;;;9.55;;
75516;SDS011;64097;52.548;13.406;2024-02-26T10:23:27;12.50;;;11.20;;
75516;SDS011;64097;52.548;13.406;2024-02-26T10:25:53;13.43;;;12.02;;
75516;SDS011;64097;52.548;13.406;2024-02-26T10:28:20;13.27;;;11.77;;
75516;SDS011;64097;52.548;13.406;2024-02-26T10:30:46;12.73;;;10.55;;
75516;SDS011;64097;52.548;13.406;2024-02-26T10:33:11;12.23;;;10.93;;
75516;SDS011;64097;52.548;13.406;2024-02-26T10:35:39;11.98;;;10.32;;
75516;SDS011;64097;52.548;13.406;2024-02-26T10:38:06;11.52;;;10.38;;
75516;SDS011;64097;52.548;13.406;2024-02-26T10:40:32;11.02;;;9.68;;
75516;SDS011;64097;52.548;13.406;2024-02-26T10:42:58;10.88;;;9.77;;
75516;SDS011;64097;52.548;13.406;2024-02-26T10:45:24;11.05;;;9.95;;
75516;SDS011;64097;52.548;13.406;2024-02-26T10:47:50;10.30;;;9.25;;
75516;SDS011;64097;52.548;13.406;2024-02-26T10:50:16;10.82;;;9.73;;
75516;SDS011;64097;52.548;13.406;2024-02-26T10:52:43;11.90;;;10.45;;
75516;SDS011;64097;52.548;13.406;2024-02-26T10:55:08;10.05;;;9.05;;
75516;SDS011;64097;52.548;13.406;2024-02-26T10:57:44;10.02;;;9.02;;
75516;SDS011;64097;52.548;13.406;2024-02-26T11:00:13;8.77;;;7.88;;
75516;SDS011;64097;52.548;13.406;2024-02-26T11:02:40;11.27;;;9.68;;
75516;SDS011;64097;52.548;13.406;2024-02-26T11:05:07;11.38;;;9.90;;
75516;SDS011;64097;52.548;13.406;2024-02-26T11:07:36;9.48;;;8.57;;
75516;SDS011;64097;52.548;13.406;2024-02-26T11:10:03;10.20;;;9.20;;
75516;SDS011;64097;52.548;13.406;2024-02-26T11:12:31;10.35;;;9.25;;
75516;SDS011;64097;52.548;13.406;2024-02-26T11:14:58;9.32;;;8.35;;
75516;SDS011;64097;52.548;13.406;2024-02-26T11:17:26;9.02;;;8.13;;
75516;SDS011;64097;52.548;13.406;2024-02-26T11:19:56;11.23;;;10.05;;
75516;SDS011;64097;52.548;13.406;2024-02-26T11:22:24;11.40;;;10.20;;
75516;SDS011;64097;52.548;13.406;2024-02-26T11:24:51;11.48;;;10.27;;
75516;SDS011;64097;52.548;13.406;2024-02-26T11:27:33;10.77;;;9.68;;
75516;SDS011;64097;52.548;13.406;2024-02-26T11:30:02;12.23;;;10.30;;
75516;SDS011;64097;52.548;13.406;2024-02-26T11:32:30;13.18;;;11.75;;
75516;SDS011;64097;52.548;13.406;2024-02-26T11:34:56;11.85;;;10.65;;
75516;SDS011;64097;52.548;13.406;2024-02-26T11:37:23;11.77;;;10.13;;
75516;SDS011;64097;52.548;13.406;2024-02-26T11:39:51;13.38;;;12.07;;
75516;SDS011;64097;52.548;13.406;2024-02-26T11:42:22;12.35;;;10.88;;
75516;SDS011;64097;52.548;13.406;2024-02-26T11:44:49;12.30;;;11.10;;
75516;SDS011;64097;52.548;13.406;2024-02-26T11:47:19;13.57;;;12.13;;
75516;SDS011;64097;52.548;13.406;2024-02-26T11:49:48;11.30;;;10.20;;
75516;SDS011;64097;52.548;13.406;2024-02-26T11:52:14;11.48;;;10.27;;
75516;SDS011;64097;52.548;13.406;2024-02-26T11:54:45;12.70;;;11.48;;
75516;SDS011;64097;52.548;13.406;2024-02-26T11:57:30;14.07;;;12.68;;
75516;SDS011;64097;52.548;13.406;2024-02-26T12:02:41;12.70;;;11.50;;
75516;SDS011;64097;52.548;13.406;2024-02-26T12:05:19;14.00;;;12.05;;
75516;SDS011;64097;52.548;13.406;2024-02-26T12:07:55;12.70;;;11.40;;
75516;SDS011;64097;52.548;13.406;2024-02-26T12:10:32;13.35;;;11.93;;
75516;SDS011;64097;52.548;13.406;2024-02-26T12:13:13;14.25;;;12.63;;
75516;SDS011;64097;52.548;13.406;2024-02-26T12:18:09;15.05;;;13.45;;
75516;SDS011;64097;52.548;13.406;2024-02-26T12:20:40;14.05;;;12.48;;
75516;SDS011;64097;52.548;13.406;2024-02-26T12:23:06;12.50;;;11.18;;
75516;SDS011;64097;52.548;13.406;2024-02-26T12:25:32;11.80;;;10.60;;
75516;SDS011;64097;52.548;13.406;2024-02-26T12:27:59;11.73;;;10.52;;
75516;SDS011;64097;52.548;13.406;2024-02-26T12:30:25;12.63;;;11.32;;
75516;SDS011;64097;52.548;13.406;2024-02-26T12:32:54;11.95;;;10.60;;
75516;SDS011;64097;52.548;13.406;2024-02-26T12:35:22;10.77;;;9.68;;
75516;SDS011;64097;52.548;13.406;2024-02-26T12:37:49;10.60;;;9.50;;
75516;SDS011;64097;52.548;13.406;2024-02-26T12:40:16;10.60;;;9.38;;
75516;SDS011;64097;52.548;13.406;2024-02-26T12:42:43;11.80;;;10.07;;
75516;SDS011;64097;52.548;13.406;2024-02-26T12:45:09;11.25;;;10.05;;
75516;SDS011;64097;52.548;13.406;2024-02-26T12:47:40;11.43;;;9.88;;
75516;SDS011;64097;52.548;13.406;2024-02-26T12:50:07;9.75;;;8.75;;
75516;SDS011;64097;52.548;13.406;2024-02-26T12:52:40;9.95;;;8.52;;
75516;SDS011;64097;52.548;13.406;2024-02-26T12:55:10;8.95;;;7.70;;
75516;SDS011;64097;52.548;13.406;2024-02-26T12:57:39;9.50;;;8.50;;
75516;SDS011;64097;52.548;13.406;2024-02-26T13:00:08;9.75;;;7.97;;
75516;SDS011;64097;52.548;13.406;2024-02-26T13:02:37;7.93;;;7.13;;
75516;SDS011;64097;52.548;13.406;2024-02-26T13:05:04;10.45;;;7.90;;
75516;SDS011;64097;52.548;13.406;2024-02-26T13:07:32;9.73;;;7.63;;
75516;SDS011;64097;52.548;13.406;2024-02-26T13:09:59;8.15;;;7.28;;
75516;SDS011;64097;52.548;13.406;2024-02-26T13:12:25;8.00;;;7.20;;
75516;SDS011;64097;52.548;13.406;2024-02-26T13:15:01;8.02;;;6.97;;
75516;SDS011;64097;52.548;13.406;2024-02-26T13:17:27;8.55;;;6.47;;
75516;SDS011;64097;52.548;13.406;2024-02-26T13:19:56;7.15;;;6.03;;
75516;SDS011;64097;52.548;13.406;2024-02-26T13:22:22;6.13;;;5.47;;
75516;SDS011;64097;52.548;13.406;2024-02-26T13:24:54;6.10;;;5.50;;
75516;SDS011;64097;52.548;13.406;2024-02-26T13:27:24;6.68;;;5.97;;
75516;SDS011;64097;52.548;13.406;2024-02-26T13:30:12;6.95;;;6.22;;
75516;SDS011;64097;52.548;13.406;2024-02-26T13:32:38;5.60;;;5.07;;
75516;SDS011;64097;52.548;13.406;2024-02-26T13:35:08;6.32;;;5.72;;
75516;SDS011;64097;52.548;13.406;2024-02-26T13:37:36;5.35;;;4.70;;
75516;SDS011;64097;52.548;13.406;2024-02-26T13:42:33;5.75;;;4.93;;
75516;SDS011;64097;52.548;13.406;2024-02-26T13:44:59;7.38;;;4.93;;
75516;SDS011;64097;52.548;13.406;2024-02-26T13:47:25;4.93;;;4.43;;
75516;SDS011;64097;52.548;13.406;2024-02-26T13:49:51;6.07;;;4.32;;
75516;SDS011;64097;52.548;13.406;2024-02-26T13:52:17;4.80;;;4.30;;
75516;SDS011;64097;52.548;13.406;2024-02-26T13:54:45;6.28;;;4.60;;
75516;SDS011;64097;52.548;13.406;2024-02-26T13:57:11;5.35;;;4.50;;
75516;SDS011;64097;52.548;13.406;2024-02-26T13:59:37;5.32;;;4.15;;
75516;SDS011;64097;52.548;13.406;2024-02-26T14:13:50;5.30;;;4.80;;
75516;SDS011;64097;52.548;13.406;2024-02-26T14:16:16;5.78;;;5.00;;
75516;SDS011;64097;52.548;13.406;2024-02-26T14:18:41;5.65;;;4.95;;
75516;SDS011;64097;52.548;13.406;2024-02-26T14:21:09;6.90;;;4.82;;
75516;SDS011;64097;52.548;13.406;2024-02-26T14:23:35;6.00;;;5.30;;
75516;SDS011;64097;52.548;13.406;2024-02-26T14:26:01;5.20;;;4.70;;
75516;SDS011;64097;52.548;13.406;2024-02-26T14:28:26;5.97;;;5.35;;
75516;SDS011;64097;52.548;13.406;2024-02-26T14:30:54;6.80;;;5.53;;
75516;SDS011;64097;52.548;13.406;2024-02-26T14:33:20;7.22;;;6.32;;
75516;SDS011;64097;52.548;13.406;2024-02-26T14:35:45;7.57;;;5.78;;
75516;SDS011;64097;52.548;13.406;2024-02-26T14:38:11;6.40;;;5.63;;
75516;SDS011;64097;52.548;13.406;2024-02-26T14:40:37;6.45;;;5.85;;
75516;SDS011;64097;52.548;13.406;2024-02-26T14:43:02;7.57;;;6.40;;
75516;SDS011;64097;52.548;13.406;2024-02-26T14:45:30;7.07;;;6.20;;
75516;SDS011;64097;52.548;13.406;2024-02-26T14:47:55;6.85;;;6.00;;
75516;SDS011;64097;52.548;13.406;2024-02-26T14:50:21;6.10;;;5.50;;
75516;SDS011;64097;52.548;13.406;2024-02-26T14:52:47;6.57;;;5.90;;
75516;SDS011;64097;52.548;13.406;2024-02-26T14:55:13;6.65;;;5.80;;
75516;SDS011;64097;52.548;13.406;2024-02-26T14:57:38;6.35;;;5.75;;
75516;SDS011;64097;52.548;13.406;2024-02-26T15:00:04;6.72;;;6.03;;
75516;SDS011;64097;52.548;13.406;2024-02-26T15:02:32;5.82;;;5.25;;
75516;SDS011;64097;52.548;13.406;2024-02-26T15:04:57;7.03;;;6.03;;
75516;SDS011;64097;52.548;13.406;2024-02-26T15:07:23;6.97;;;6.28;;
75516;SDS011;64097;52.548;13.406;2024-02-26T15:09:49;7.35;;;5.90;;
75516;SDS011;64097;52.548;13.406;2024-02-26T15:12:15;7.28;;;6.57;;
75516;SDS011;64097;52.548;13.406;2024-02-26T15:14:42;6.90;;;6.20;;
75516;SDS011;64097;52.548;13.406;2024-02-26T15:17:09;6.90;;;6.30;;
75516;SDS011;64097;52.548;13.406;2024-02-26T15:19:38;7.28;;;6.50;;
75516;SDS011;64097;52.548;13.406;2024-02-26T15:22:04;6.25;;;5.47;;
75516;SDS011;64097;52.548;13.406;2024-02-26T15:24:30;7.38;;;6.13;;
75516;SDS011;64097;52.548;13.406;2024-02-26T15:26:56;6.40;;;5.57;;
75516;SDS011;64097;52.548;13.406;2024-02-26T15:29:22;6.15;;;5.50;;
75516;SDS011;64097;52.548;13.406;2024-02-26T15:31:48;6.80;;;5.85;;
75516;SDS011;64097;52.548;13.406;2024-02-26T15:34:13;5.90;;;5.30;;
75516;SDS011;64097;52.548;13.406;2024-02-26T15:36:40;6.18;;;5.57;;
75516;SDS011;64097;52.548;13.406;2024-02-26T15:39:06;7.68;;;5.88;;
75516;SDS011;64097;52.548;13.406;2024-02-26T15:41:32;6.20;;;5.60;;
75516;SDS011;64097;52.548;13.406;2024-02-26T15:43:58;6.72;;;5.65;;
75516;SDS011;64097;52.548;13.406;2024-02-26T15:46:25;7.22;;;6.30;;
75516;SDS011;64097;52.548;13.406;2024-02-26T15:48:51;6.32;;;5.72;;
75516;SDS011;64097;52.548;13.406;2024-02-26T15:51:18;7.47;;;6.50;;
75516;SDS011;64097;52.548;13.406;2024-02-26T15:53:46;7.32;;;6.55;;
75516;SDS011;64097;52.548;13.406;2024-02-26T15:56:13;7.97;;;6.70;;
75516;SDS011;64097;52.548;13.406;2024-02-26T15:58:39;8.50;;;7.60;;
75516;SDS011;64097;52.548;13.406;2024-02-26T16:01:05;9.50;;;8.18;;
75516;SDS011;64097;52.548;13.406;2024-02-26T16:03:35;8.48;;;7.60;;
75516;SDS011;64097;52.548;13.406;2024-02-26T16:06:02;9.85;;;8.38;;
75516;SDS011;64097;52.548;13.406;2024-02-26T16:08:28;8.68;;;7.70;;
75516;SDS011;64097;52.548;13.406;2024-02-26T16:10:55;9.85;;;8.18;;
75516;SDS011;64097;52.548;13.406;2024-02-26T16:13:22;8.32;;;7.53;;
75516;SDS011;64097;52.548;13.406;2024-02-26T16:15:51;10.65;;;8.40;;
75516;SDS011;64097;52.548;13.406;2024-02-26T16:18:27;10.05;;;8.52;;
75516;SDS011;64097;52.548;13.406;2024-02-26T16:20:55;9.70;;;8.70;;
75516;SDS011;64097;52.548;13.406;2024-02-26T16:23:21;9.70;;;8.70;;
75516;SDS011;64097;52.548;13.406;2024-02-26T16:25:47;8.60;;;7.70;;
75516;SDS011;64097;52.548;13.406;2024-02-26T16:28:13;11.18;;;9.35;;
75516;SDS011;64097;52.548;13.406;2024-02-26T16:30:39;9.48;;;8.48;;
75516;SDS011;64097;52.548;13.406;2024-02-26T16:33:05;10.57;;;9.18;;
75516;SDS011;64097;52.548;13.406;2024-02-26T16:35:30;11.75;;;8.95;;
75516;SDS011;64097;52.548;13.406;2024-02-26T16:37:58;9.43;;;8.52;;
75516;SDS011;64097;52.548;13.406;2024-02-26T16:40:23;10.60;;;8.52;;
75516;SDS011;64097;52.548;13.406;2024-02-26T16:42:49;9.93;;;8.93;;
75516;SDS011;64097;52.548;13.406;2024-02-26T16:45:15;10.55;;;9.02;;
75516;SDS011;64097;52.548;13.406;2024-02-26T16:47:41;11.00;;;9.38;;
75516;SDS011;64097;52.548;13.406;2024-02-26T16:50:07;9.75;;;8.70;;
75516;SDS011;64097;52.548;13.406;2024-02-26T16:52:35;11.48;;;9.70;;
75516;SDS011;64097;52.548;13.406;2024-02-26T16:55:00;10.90;;;9.70;;
75516;SDS011;64097;52.548;13.406;2024-02-26T16:57:26;12.80;;;10.35;;
75516;SDS011;64097;52.548;13.406;2024-02-26T16:59:52;11.20;;;10.00;;
75516;SDS011;64097;52.548;13.406;2024-02-26T17:02:17;11.38;;;9.63;;
75516;SDS011;64097;52.548;13.406;2024-02-26T17:04:43;11.15;;;9.90;;
75516;SDS011;64097;52.548;13.406;2024-02-26T17:07:09;10.45;;;9.35;;
75516;SDS011;64097;52.548;13.406;2024-02-26T17:09:35;11.23;;;9.40;;
75516;SDS011;64097;52.548;13.406;2024-02-26T17:12:01;12.55;;;10.63;;
75516;SDS011;64097;52.548;13.406;2024-02-26T17:14:26;13.43;;;10.93;;
75516;SDS011;64097;52.548;13.406;2024-02-26T17:16:56;13.30;;;11.23;;
75516;SDS011;64097;52.548;13.406;2024-02-26T17:19:24;16.08;;;13.13;;
75516;SDS011;64097;52.548;13.406;2024-02-26T17:21:51;18.38;;;13.55;;
75516;SDS011;64097;52.548;13.406;2024-02-26T17:24:17;18.67;;;13.13;;
75516;SDS011;64097;52.548;13.406;2024-02-26T17:26:43;25.52;;;15.82;;
75516;SDS011;64097;52.548;13.406;2024-02-26T17:29:09;22.83;;;14.30;;
75516;SDS011;64097;52.548;13.406;2024-02-26T17:31:35;23.10;;;14.25;;
75516;SDS011;64097;52.548;13.406;2024-02-26T17:34:07;26.08;;;16.08;;
75516;SDS011;64097;52.548;13.406;2024-02-26T17:36:33;23.55;;;15.55;;
75516;SDS011;64097;52.548;13.406;2024-02-26T17:39:00;23.25;;;15.30;;
75516;SDS011;64097;52.548;13.406;2024-02-26T17:41:26;20.15;;;13.30;;
75516;SDS011;64097;52.548;13.406;2024-02-26T17:43:53;17.70;;;12.50;;
75516;SDS011;64097;52.548;13.406;2024-02-26T17:46:20;17.20;;;12.88;;
75516;SDS011;64097;52.548;13.406;2024-02-26T17:48:46;18.58;;;12.68;;
75516;SDS011;64097;52.548;13.406;2024-02-26T17:51:12;15.80;;;12.13;;
75516;SDS011;64097;52.548;13.406;2024-02-26T17:53:37;15.90;;;12.07;;
75516;SDS011;64097;52.548;13.406;2024-02-26T17:56:04;15.65;;;12.00;;
75516;SDS011;64097;52.548;13.406;2024-02-26T17:58:32;16.52;;;12.38;;
75516;SDS011;64097;52.548;13.406;2024-02-26T18:00:58;13.45;;;10.77;;
75516;SDS011;64097;52.548;13.406;2024-02-26T18:03:24;15.27;;;11.65;;
75516;SDS011;64097;52.548;13.406;2024-02-26T18:05:49;13.48;;;10.48;;
75516;SDS011;64097;52.548;13.406;2024-02-26T18:08:16;11.93;;;9.95;;
75516;SDS011;64097;52.548;13.406;2024-02-26T18:10:46;13.55;;;10.63;;
75516;SDS011;64097;52.548;13.406;2024-02-26T18:13:15;12.55;;;10.85;;
75516;SDS011;64097;52.548;13.406;2024-02-26T18:15:42;12.45;;;11.02;;
75516;SDS011;64097;52.548;13.406;2024-02-26T18:18:08;14.18;;;11.27;;
75516;SDS011;64097;52.548;13.406;2024-02-26T18:20:33;11.70;;;9.57;;
75516;SDS011;64097;52.548;13.406;2024-02-26T18:22:59;14.63;;;11.07;;
75516;SDS011;64097;52.548;13.406;2024-02-26T18:25:25;12.75;;;9.68;;
75516;SDS011;64097;52.548;13.406;2024-02-26T18:27:51;12.95;;;10.20;;
75516;SDS011;64097;52.548;13.406;2024-02-26T18:30:17;12.27;;;10.20;;
75516;SDS011;64097;52.548;13.406;2024-02-26T18:32:43;11.52;;;9.73;;
75516;SDS011;64097;52.548;13.406;2024-02-26T18:35:09;10.73;;;9.10;;
75516;SDS011;64097;52.548;13.406;2024-02-26T18:37:35;10.05;;;8.85;;
75516;SDS011;64097;52.548;13.406;2024-02-26T18:40:01;9.93;;;8.55;;
75516;SDS011;64097;52.548;13.406;2024-02-26T18:42:32;9.50;;;8.30;;
75516;SDS011;64097;52.548;13.406;2024-02-26T18:45:00;9.70;;;8.30;;
75516;SDS011;64097;52.548;13.406;2024-02-26T18:47:26;8.80;;;7.57;;
75516;SDS011;64097;52.548;13.406;2024-02-26T18:49:52;8.90;;;7.95;;
75516;SDS011;64097;52.548;13.406;2024-02-26T18:52:18;11.07;;;9.60;;
75516;SDS011;64097;52.548;13.406;2024-02-26T18:54:44;10.55;;;9.25;;
75516;SDS011;64097;52.548;13.406;2024-02-26T18:57:11;11.23;;;9.40;;
75516;SDS011;64097;52.548;13.406;2024-02-26T18:59:37;10.98;;;9.18;;
75516;SDS011;64097;52.548;13.406;2024-02-26T19:02:03;10.57;;;8.65;;
75516;SDS011;64097;52.548;13.406;2024-02-26T19:04:29;10.23;;;8.82;;
75516;SDS011;64097;52.548;13.406;2024-02-26T19:06:55;8.93;;;7.93;;
75516;SDS011;64097;52.548;13.406;2024-02-26T19:09:21;8.55;;;7.63;;
75516;SDS011;64097;52.548;13.406;2024-02-26T19:11:47;8.30;;;7.22;;
75516;SDS011;64097;52.548;13.406;2024-02-26T19:14:14;9.73;;;7.13;;
75516;SDS011;64097;52.548;13.406;2024-02-26T19:16:40;8.25;;;7.38;;
75516;SDS011;64097;52.548;13.406;2024-02-26T19:19:06;9.25;;;7.65;;
75516;SDS011;64097;52.548;13.406;2024-02-26T19:21:33;8.60;;;7.68;;
75516;SDS011;64097;52.548;13.406;2024-02-26T19:24:00;9.07;;;7.97;;
75516;SDS011;64097;52.548;13.406;2024-02-26T19:26:28;7.93;;;7.13;;
75516;SDS011;64097;52.548;13.406;2024-02-26T19:28:54;9.05;;;8.00;;
75516;SDS011;64097;52.548;13.406;2024-02-26T19:31:19;9.68;;;7.00;;
75516;SDS011;64097;52.548;13.406;2024-02-26T19:33:45;7.97;;;7.18;;
75516;SDS011;64097;52.548;13.406;2024-02-26T19:36:12;8.25;;;6.70;;
75516;SDS011;64097;52.548;13.406;2024-02-26T19:38:38;8.85;;;7.88;;
75516;SDS011;64097;52.548;13.406;2024-02-26T19:41:04;8.98;;;7.28;;
75516;SDS011;64097;52.548;13.406;2024-02-26T19:43:30;7.72;;;6.93;;
75516;SDS011;64097;52.548;13.406;2024-02-26T19:45:56;7.97;;;6.60;;
75516;SDS011;64097;52.548;13.406;2024-02-26T19:48:21;7.63;;;6.55;;
75516;SDS011;64097;52.548;13.406;2024-02-26T19:50:48;7.00;;;6.30;;
75516;SDS011;64097;52.548;13.406;2024-02-26T19:53:14;7.20;;;5.88;;
75516;SDS011;64097;52.548;13.406;2024-02-26T19:55:39;11.38;;;8.88;;
75516;SDS011;64097;52.548;13.406;2024-02-26T19:58:05;15.55;;;11.15;;
75516;SDS011;64097;52.548;13.406;2024-02-26T20:00:31;9.15;;;7.57;;
75516;SDS011;64097;52.548;13.406;2024-02-26T20:02:57;6.95;;;6.25;;
75516;SDS011;64097;52.548;13.406;2024-02-26T20:05:22;14.50;;;10.73;;
75516;SDS011;64097;52.548;13.406;2024-02-26T20:07:48;9.05;;;7.60;;
75516;SDS011;64097;52.548;13.406;2024-02-26T20:10:16;8.75;;;7.25;;
75516;SDS011;64097;52.548;13.406;2024-02-26T20:12:42;7.95;;;6.18;;
75516;SDS011;64097;52.548;13.406;2024-02-26T20:15:08;7.35;;;6.57;;
75516;SDS011;64097;52.548;13.406;2024-02-26T20:17:33;9.55;;;6.75;;
75516;SDS011;64097;52.548;13.406;2024-02-26T20:19:59;7.93;;;6.18;;
75516;SDS011;64097;52.548;13.406;2024-02-26T20:22:25;7.70;;;6.85;;
75516;SDS011;64097;52.548;13.406;2024-02-26T20:24:51;9.18;;;6.90;;
75516;SDS011;64097;52.548;13.406;2024-02-26T20:27:19;7.25;;;6.38;;
75516;SDS011;64097;52.548;13.406;2024-02-26T20:29:45;6.63;;;5.60;;
75516;SDS011;64097;52.548;13.406;2024-02-26T20:32:12;7.82;;;6.18;;
75516;SDS011;64097;52.548;13.406;2024-02-26T20:34:37;8.15;;;6.38;;
75516;SDS011;64097;52.548;13.406;2024-02-26T20:37:05;7.38;;;6.50;;
75516;SDS011;64097;52.548;13.406;2024-02-26T20:39:31;7.38;;;6.15;;